Time;durP1;ratioP1;P1;durP2;ratioP2;P2;SDS_P1;SDS_P2;PMS_P1;PMS_P2;Temp;Humidity;BMP_temperature;BMP_pressure;BME280_temperature;BME280_humidity;BME280_pressure;Samples;Min_cycle;Max_cycle;Signal;HPM_P1;HPM_P2
2023/05/30 00:06:11;;;;;;;10.3;5.9;;;;;;;9.5;78.3;98880;;;;
2023/05/30 00:16:12;;;;;;;10.3;5.9;;;;;;;9.4;77.8;98880;;;;
2023/05/30 00:26:10;;;;;;;10.3;5.9;;;;;;;9.2;82.2;98880;;;;
2023/05/30 00:37:10;;;;;;;11.2;7.2;;;;;;;9.2;80.7;98880;;;;
2023/05/30 00:48:10;;;;;;;11.2;7.2;;;;;;;9.2;79.1;98900;;;;
2023/05/30 00:59:10;;;;;;;11.1;6.4;;;;;;;9;81.6;98900;;;;
2023/05/30 01:09:10;;;;;;;11.1;6.4;;;;;;;9;82;98900;;;;
2023/05/30 01:20:10;;;;;;;11.1;6.4;;;;;;;9;81.6;98900;;;;
2023/05/30 01:30:10;;;;;;;11.8;6.5;;;;;;;9.2;82;98900;;;;
2023/05/30 01:40:10;;;;;;;11.8;6.5;;;;;;;9.3;81.6;98900;;;;
2023/05/30 01:50:10;;;;;;;11.8;6.5;;;;;;;9.4;81.4;98900;;;;
2023/05/30 02:00:12;;;;;;;14.3;7.3;;;;;;;9.4;80.8;98890;;;;
2023/05/30 02:11:10;;;;;;;14.3;7.3;;;;;;;9.4;80.6;98890;;;;
2023/05/30 02:21:10;;;;;;;14.3;7.3;;;;;;;9.4;80.8;98890;;;;
2023/05/30 02:32:10;;;;;;;12.5;7.2;;;;;;;9.4;80.6;98900;;;;
2023/05/30 02:43:10;;;;;;;12.5;7.2;;;;;;;9.4;81.4;98900;;;;
2023/05/30 02:53:10;;;;;;;12.5;7.2;;;;;;;9.4;81.3;98910;;;;
2023/05/30 03:03:10;;;;;;;12.3;7.1;;;;;;;9.5;81.4;98910;;;;
2023/05/30 03:14:10;;;;;;;12.3;7.1;;;;;;;9.6;82.3;98910;;;;
2023/05/30 03:25:10;;;;;;;12.3;7.1;;;;;;;9.9;81.7;98920;;;;
2023/05/30 03:36:10;;;;;;;12.2;7;;;;;;;10.3;80.7;98930;;;;
2023/05/30 03:47:10;;;;;;;12.2;7;;;;;;;10.8;80.1;98940;;;;
2023/05/30 03:57:11;;;;;;;12;7.5;;;;;;;11.3;79.5;98950;;;;
2023/05/30 04:07:10;;;;;;;12;7.5;;;;;;;11.7;79;98950;;;;
2023/05/30 04:18:10;;;;;;;12;7.5;;;;;;;12.2;77.1;98970;;;;
2023/05/30 04:29:11;;;;;;;19.7;10.3;;;;;;;12.6;74.7;98980;;;;
2023/05/30 04:39:10;;;;;;;19.7;10.3;;;;;;;12.9;73.6;98980;;;;
2023/05/30 04:49:10;;;;;;;19.7;10.3;;;;;;;13.1;73.5;98980;;;;
2023/05/30 05:00:14;;;;;;;16.7;14.2;;;;;;;13.6;71.8;98990;;;;
2023/05/30 05:11:10;;;;;;;16.7;14.2;;;;;;;13.8;70.5;99000;;;;
2023/05/30 05:22:10;;;;;;;16.7;14.2;;;;;;;14.1;70.1;99000;;;;
2023/05/30 05:32:10;;;;;;;23.6;16.4;;;;;;;14.6;68.9;99000;;;;
2023/05/30 05:43:10;;;;;;;23.6;16.4;;;;;;;14.9;67.1;99010;;;;
2023/05/30 05:53:10;;;;;;;23.6;16.4;;;;;;;15.1;68.1;99010;;;;
2023/05/30 06:04:10;;;;;;;22.6;16.9;;;;;;;15.1;67.1;99030;;;;
2023/05/30 06:14:12;;;;;;;22.6;16.9;;;;;;;15.6;66.5;99020;;;;
2023/05/30 06:25:10;;;;;;;22.6;16.9;;;;;;;15.7;65.7;99030;;;;
2023/05/30 06:36:10;;;;;;;22.9;17.4;;;;;;;16.1;65.5;99040;;;;
2023/05/30 06:46:10;;;;;;;22.9;17.4;;;;;;;16.6;64.8;99050;;;;
2023/05/30 06:56:10;;;;;;;21.6;16.6;;;;;;;17.4;62.2;99060;;;;
2023/05/30 07:07:10;;;;;;;21.6;16.6;;;;;;;17.9;63.3;99070;;;;
2023/05/30 07:18:10;;;;;;;21.6;16.6;;;;;;;18.1;58;99060;;;;
2023/05/30 07:28:10;;;;;;;21.6;16.4;;;;;;;18.5;58.7;99050;;;;
2023/05/30 07:38:11;;;;;;;21.6;16.4;;;;;;;18.7;54.5;99050;;;;
2023/05/30 07:48:11;;;;;;;21.6;16.4;;;;;;;19.1;56.2;99060;;;;
2023/05/30 07:59:11;;;;;;;19.2;13.2;;;;;;;19.3;54.5;99050;;;;
2023/05/30 08:09:11;;;;;;;19.2;13.2;;;;;;;19.5;53.7;99060;;;;
2023/05/30 08:19:11;;;;;;;19.2;13.2;;;;;;;19.8;55.6;99070;;;;
2023/05/30 08:30:11;;;;;;;18.8;11.3;;;;;;;20.5;52.4;99060;;;;
2023/05/30 08:41:10;;;;;;;18.8;11.3;;;;;;;20.6;51.7;99060;;;;
2023/05/30 08:51:11;;;;;;;18.8;11.3;;;;;;;20.6;52.7;99060;;;;
2023/05/30 09:02:10;;;;;;;15.5;10;;;;;;;21.2;52.7;99070;;;;
2023/05/30 09:12:11;;;;;;;15.5;10;;;;;;;21;54;99070;;;;
2023/05/30 09:23:10;;;;;;;15.5;10;;;;;;;20.9;52.7;99070;;;;
2023/05/30 09:33:10;;;;;;;14.3;8.7;;;;;;;21.6;50.5;99050;;;;
2023/05/30 09:43:11;;;;;;;14.3;8.7;;;;;;;21.7;45.2;99050;;;;
2023/05/30 09:53:11;;;;;;;14.3;8.7;;;;;;;21.6;44.7;99070;;;;
2023/05/30 10:03:10;;;;;;;9.3;4.4;;;;;;;21.8;44.3;99060;;;;
2023/05/30 10:14:11;;;;;;;9.3;4.4;;;;;;;22;44.1;99060;;;;
2023/05/30 10:25:10;;;;;;;9.3;4.4;;;;;;;22.2;42.7;99060;;;;
2023/05/30 10:35:11;;;;;;;7.2;4;;;;;;;22.1;40.7;99060;;;;
2023/05/30 10:46:11;;;;;;;7.2;4;;;;;;;22;43.5;99050;;;;
2023/05/30 10:57:11;;;;;;;9.2;4.5;;;;;;;22;41.9;99040;;;;
2023/05/30 11:07:11;;;;;;;9.2;4.5;;;;;;;23.1;41.4;99040;;;;
2023/05/30 11:18:11;;;;;;;9.2;4.5;;;;;;;22.2;42.6;99040;;;;
2023/05/30 11:28:13;;;;;;;8.1;3.6;;;;;;;22.7;41.6;99040;;;;
2023/05/30 11:39:11;;;;;;;8.1;3.6;;;;;;;23.5;41.3;99030;;;;
2023/05/30 11:50:11;;;;;;;8.1;3.6;;;;;;;22.9;40.4;99040;;;;
2023/05/30 12:01:11;;;;;;;8.5;4;;;;;;;22.3;42.2;99030;;;;
2023/05/30 12:11:11;;;;;;;8.5;4;;;;;;;22.5;42;99030;;;;
2023/05/30 12:22:11;;;;;;;8.5;4;;;;;;;23;42.3;99030;;;;
2023/05/30 12:32:11;;;;;;;7.5;3.7;;;;;;;23.5;40.6;99020;;;;
2023/05/30 12:43:12;;;;;;;7.5;3.7;;;;;;;23.7;38.4;99030;;;;
2023/05/30 12:53:11;;;;;;;7.5;3.7;;;;;;;24;37.9;99020;;;;
2023/05/30 13:03:11;;;;;;;8.3;3.6;;;;;;;23.3;39.5;99030;;;;
2023/05/30 13:14:11;;;;;;;8.3;3.6;;;;;;;23.6;38.6;99020;;;;
2023/05/30 13:24:11;;;;;;;8.3;3.6;;;;;;;22.8;40.2;99020;;;;
2023/05/30 13:34:11;;;;;;;7.8;3.7;;;;;;;23.6;39.3;99010;;;;
2023/05/30 13:44:11;;;;;;;7.8;3.7;;;;;;;23.2;38.3;99020;;;;
2023/05/30 13:55:11;;;;;;;7.8;3.7;;;;;;;24;37.5;99010;;;;
2023/05/30 14:05:11;;;;;;;11.1;3.6;;;;;;;24.5;37.7;99010;;;;
2023/05/30 14:15:11;;;;;;;11.1;3.6;;;;;;;25.1;35.1;99010;;;;
2023/05/30 14:26:11;;;;;;;8.9;4.1;;;;;;;24.1;36.9;99030;;;;
2023/05/30 14:37:11;;;;;;;8.9;4.1;;;;;;;23.2;39;99030;;;;
2023/05/30 14:48:12;;;;;;;8.9;4.1;;;;;;;22.5;40.8;99030;;;;
2023/05/30 14:59:11;;;;;;;7.3;3.4;;;;;;;22.1;40.9;99030;;;;
2023/05/30 15:10:11;;;;;;;7.3;3.4;;;;;;;21.8;40.7;99050;;;;
2023/05/30 15:20:11;;;;;;;7.3;3.4;;;;;;;23.8;38.3;99040;;;;
2023/05/30 15:31:11;;;;;;;9;3.7;;;;;;;26.4;34.7;99030;;;;
2023/05/30 15:41:11;;;;;;;9;3.7;;;;;;;28.4;30.7;99040;;;;
2023/05/30 15:51:11;;;;;;;9;3.7;;;;;;;28.1;30.3;99030;;;;
2023/05/30 16:02:11;;;;;;;6.7;2.9;;;;;;;28.8;30.8;99030;;;;
2023/05/30 16:12:11;;;;;;;6.7;2.9;;;;;;;26;33.3;99030;;;;
2023/05/30 16:22:11;;;;;;;6.7;2.9;;;;;;;25.2;34.7;99050;;;;
2023/05/30 16:33:11;;;;;;;6.3;2.8;;;;;;;23.1;38.1;99050;;;;
2023/05/30 16:44:11;;;;;;;6.3;2.8;;;;;;;22.6;39;99050;;;;
2023/05/30 16:54:13;;;;;;;6.3;2.8;;;;;;;23.2;38.8;99060;;;;
2023/05/30 17:05:11;;;;;;;7.6;3.1;;;;;;;24.8;34.8;99070;;;;
2023/05/30 17:15:11;;;;;;;7.6;3.1;;;;;;;22.8;37.7;99080;;;;
2023/05/30 17:25:11;;;;;;;7.6;3.1;;;;;;;21.5;39;99100;;;;
2023/05/30 17:35:11;;;;;;;10.3;2.7;;;;;;;21.6;39.3;99110;;;;
2023/05/30 17:45:11;;;;;;;10.3;2.7;;;;;;;22.9;37;99110;;;;
2023/05/30 17:56:11;;;;;;;10.3;2.7;;;;;;;23.3;36.4;99120;;;;
2023/05/30 18:06:14;;;;;;;5.7;2.9;;;;;;;21.4;39.4;99140;;;;
2023/05/30 18:16:11;;;;;;;5.7;2.9;;;;;;;19.9;42.4;99140;;;;
2023/05/30 18:26:12;;;;;;;5.7;2.9;;;;;;;19.1;43.5;99150;;;;
2023/05/30 18:36:11;;;;;;;7;3;;;;;;;18.3;45;99160;;;;
2023/05/30 18:47:11;;;;;;;7;3;;;;;;;17.5;46.9;99180;;;;
2023/05/30 18:58:11;;;;;;;8.8;3.6;;;;;;;16.9;48.3;99190;;;;
2023/05/30 19:09:11;;;;;;;8.8;3.6;;;;;;;16.1;50;99210;;;;
2023/05/30 19:19:11;;;;;;;8.8;3.6;;;;;;;15.5;51.5;99230;;;;
2023/05/30 19:30:11;;;;;;;7.3;3.9;;;;;;;15.1;54.5;99240;;;;
2023/05/30 19:40:11;;;;;;;7.3;3.9;;;;;;;14.7;55.5;99260;;;;
2023/05/30 19:51:13;;;;;;;7.3;3.9;;;;;;;14.4;56.7;99260;;;;
2023/05/30 20:01:11;;;;;;;7.3;3.5;;;;;;;14.1;56.8;99260;;;;
2023/05/30 20:11:11;;;;;;;7.3;3.5;;;;;;;13.9;57.8;99270;;;;
2023/05/30 20:22:11;;;;;;;7.3;3.5;;;;;;;13.6;57.5;99280;;;;
2023/05/30 20:33:11;;;;;;;6.2;3.1;;;;;;;13.4;58;99280;;;;
2023/05/30 20:43:11;;;;;;;6.2;3.1;;;;;;;13.2;58.7;99290;;;;
2023/05/30 20:53:11;;;;;;;6.2;3.1;;;;;;;13;59;99300;;;;
2023/05/30 21:04:11;;;;;;;7.2;2.8;;;;;;;12.8;58.8;99300;;;;
2023/05/30 21:14:11;;;;;;;7.2;2.8;;;;;;;12.6;59.3;99310;;;;
2023/05/30 21:25:11;;;;;;;7.2;2.8;;;;;;;12.4;59.7;99310;;;;
2023/05/30 21:35:11;;;;;;;5.6;2.6;;;;;;;12.2;60.6;99300;;;;
2023/05/30 21:46:11;;;;;;;5.6;2.6;;;;;;;12;60.5;99320;;;;
2023/05/30 21:57:11;;;;;;;6.2;2.8;;;;;;;11.9;60.4;99320;;;;
2023/05/30 22:08:11;;;;;;;6.2;2.8;;;;;;;11.8;61;99330;;;;
2023/05/30 22:19:11;;;;;;;6.2;2.8;;;;;;;11.5;62.6;99330;;;;
2023/05/30 22:29:11;;;;;;;5.7;2.5;;;;;;;11.1;63.3;99330;;;;
2023/05/30 22:40:11;;;;;;;5.7;2.5;;;;;;;10.9;67.2;99330;;;;
2023/05/30 22:51:13;;;;;;;5.7;2.5;;;;;;;10.6;67.6;99330;;;;
2023/05/30 23:02:11;;;;;;;7.6;3;;;;;;;10.3;68.8;99330;;;;
2023/05/30 23:13:12;;;;;;;7.6;3;;;;;;;10.1;69;99340;;;;
2023/05/30 23:23:11;;;;;;;7.6;3;;;;;;;10;69.3;99340;;;;
2023/05/30 23:33:11;;;;;;;5;2.6;;;;;;;9.8;69.3;99340;;;;
2023/05/30 23:43:11;;;;;;;5;2.6;;;;;;;9.6;69.5;99330;;;;
2023/05/30 23:54:11;;;;;;;5;2.6;;;;;;;9.3;70.3;99340;;;;
